Block Island, RI

2:29 PM EDT on March 29, 2017 (GMT -0400)
Block Island State

Weather History for KBID - May, 2013

Change the Weather History Date:

Wednesday, May 15, 2013

  Actual Average Record
Temperature  
Mean Temperature 50 °F -  
Max Temperature 57 °F 59 °F 76 °F (1976)
Min Temperature 44 °F 47 °F 38 °F (1986)
Degree Days  
Heating Degree Days 14    
Moisture  
Dew Point 45 °F    
Average Humidity 77    
Maximum Humidity 88    
Minimum Humidity 51    
Precipitation  
Precipitation 0.01 in - - ()
Sea Level Pressure  
Sea Level Pressure 29.95 in    
Wind  
Wind Speed 11 mph (SSW)    
Max Wind Speed 25 mph    
Max Gust Speed 39 mph    
Visibility 10 miles    
Events      
Averages and records for this station are not official NWS values.
T = Trace of Precipitation, MM = Missing Value Source: NWS Daily Summary

Daily Weather History Graph

Daily Weather History Graph

Search for Another Location

Airport or City:

Trip Planner

Search our weather history database for the weather conditions in past years. The results will help you decide how hot, cold, wet, or windy it might be!

Date:

Astronomy

May. 15, 2013 Rise Set
Actual Time 5:27 AM EDT 7:58 PM EDT
Civil Twilight 4:56 AM EDT 8:29 PM EDT
Nautical Twilight 4:17 AM EDT 9:08 PM EDT
Astronomical Twilight 3:33 AM EDT 9:52 PM EDT
Moon 10:01 AM EDT (5/15) No Moon Set
Length of Visible Light 15h 33m
Length of Day
14h 30m
Waxing Crescent, 26% of the Moon is Illuminated
May 15
Waxing Crescent
May 18
First Quarter
May 25
Full
May 31
Last Quarter
Jun 8
New

Hourly Weather History & Observations

Time (EDT) Temp. Windchill Dew Point Humidity Pressure Visibility Wind Dir Wind Speed Gust Speed Precip Events Conditions
12:15 AM 48.2 °F - 39.2 °F 71% 30.09 in 10.0 mi WSW 10.4 mph - N/A   Clear
12:35 AM 48.2 °F - 39.2 °F 71% 30.09 in 10.0 mi WSW 11.5 mph - N/A   Clear
12:55 AM 48.2 °F - 39.2 °F 71% 30.09 in 10.0 mi WSW 10.4 mph - N/A   Clear
1:15 AM 48.2 °F - 39.2 °F 71% 30.09 in 10.0 mi WSW 11.5 mph - N/A   Clear
1:35 AM 48.2 °F - 39.2 °F 71% 30.08 in 10.0 mi WSW 10.4 mph - N/A   Clear
1:55 AM 48.2 °F - 39.2 °F 71% 30.08 in 10.0 mi WSW 9.2 mph - N/A   Clear
2:15 AM 48.2 °F - 39.2 °F 71% 30.08 in 10.0 mi WSW 10.4 mph - N/A   Clear
2:35 AM 48.2 °F - 39.2 °F 71% 30.08 in 10.0 mi WSW 10.4 mph - N/A   Clear
2:55 AM 48.2 °F - 41.0 °F 76% 30.08 in 10.0 mi WSW 6.9 mph - N/A   Clear
3:15 AM 46.4 °F 42.9 °F 41.0 °F 81% 30.07 in 10.0 mi SW 6.9 mph - N/A   Clear
3:35 AM 46.4 °F 43.5 °F 39.2 °F 76% 30.07 in 10.0 mi WSW 5.8 mph - N/A   Clear
3:55 AM 44.6 °F 41.4 °F 39.2 °F 81% 30.07 in 10.0 mi WSW 5.8 mph - N/A   Clear
4:15 AM 44.6 °F 40.7 °F 39.2 °F 81% 30.07 in 10.0 mi SW 6.9 mph - N/A   Clear
4:35 AM 44.6 °F 40.2 °F 39.2 °F 81% 30.07 in 10.0 mi SW 8.1 mph - N/A   Clear
4:55 AM 46.4 °F 42.4 °F 42.8 °F 87% 30.06 in 10.0 mi SSW 8.1 mph - N/A   Clear
5:15 AM 46.4 °F 42.4 °F 42.8 °F 87% 30.06 in 10.0 mi SSW 8.1 mph - N/A   Clear
5:35 AM 48.2 °F - 44.6 °F 87% 30.06 in 10.0 mi SSW 8.1 mph - N/A   Clear
5:55 AM 48.2 °F - 44.6 °F 87% 30.06 in 10.0 mi SSW 6.9 mph - N/A   Clear
6:15 AM 48.2 °F - 44.6 °F 87% 30.07 in 10.0 mi SSW 8.1 mph - N/A   Clear
6:35 AM 50.0 °F - 44.6 °F 82% 30.07 in 10.0 mi SSW 5.8 mph - N/A   Clear
6:55 AM 51.8 °F - 46.4 °F 82% 30.07 in 10.0 mi SSW 8.1 mph - N/A   Clear
7:15 AM 51.8 °F - 46.4 °F 82% 30.08 in 10.0 mi SSW 9.2 mph - N/A   Clear
7:35 AM 51.8 °F - 46.4 °F 82% 30.08 in 10.0 mi WSW 10.4 mph - N/A   Clear
7:55 AM 53.6 °F - 46.4 °F 77% 30.08 in 10.0 mi SW 9.2 mph - N/A   Clear
8:15 AM 53.6 °F - 46.4 °F 77% 30.08 in 10.0 mi SW 9.2 mph - N/A   Clear
8:35 AM 53.6 °F - 46.4 °F 77% 30.07 in 10.0 mi SW 10.4 mph - N/A   Scattered Clouds
8:55 AM 53.6 °F - 46.4 °F 77% 30.06 in 10.0 mi SW 6.9 mph - N/A   Overcast
9:15 AM 53.6 °F - 46.4 °F 77% 30.06 in 10.0 mi SSW 9.2 mph - N/A   Overcast
9:35 AM 53.6 °F - 46.4 °F 77% 30.06 in 10.0 mi SSW 10.4 mph - N/A   Overcast
9:55 AM 53.6 °F - 46.4 °F 77% 30.05 in 10.0 mi South 11.5 mph - N/A   Overcast
10:15 AM 53.6 °F - 46.4 °F 77% 30.05 in 10.0 mi SSW 11.5 mph - N/A   Overcast
10:35 AM 55.4 °F - 46.4 °F 72% 30.05 in 10.0 mi SSW 12.7 mph - N/A   Overcast
10:55 AM 57.2 °F - 44.6 °F 63% 30.05 in 10.0 mi SSW 16.1 mph 21.9 mph N/A   Mostly Cloudy
11:35 AM 57.2 °F - 44.6 °F 63% 30.03 in 10.0 mi SSW 11.5 mph - N/A   Clear
11:55 AM 57.2 °F - 42.8 °F 59% 30.03 in 10.0 mi SSW 13.8 mph 18.4 mph N/A   Clear
12:15 PM 57.2 °F - 39.2 °F 51% 30.02 in 10.0 mi SSW 10.4 mph 16.1 mph N/A   Clear
12:35 PM 55.4 °F - 42.8 °F 63% 30.01 in 10.0 mi South 10.4 mph - N/A   Clear
12:55 PM 57.2 °F - 42.8 °F 59% 30.01 in 10.0 mi South 12.7 mph - N/A   Scattered Clouds
1:16 PM 57.2 °F - 42.8 °F 59% 30.01 in 10.0 mi South 11.5 mph - N/A   Overcast
1:35 PM 55.4 °F - 42.8 °F 63% 29.99 in 10.0 mi South 12.7 mph - N/A   Mostly Cloudy
1:55 PM 55.4 °F - 44.6 °F 67% 29.98 in 10.0 mi South 12.7 mph - N/A   Scattered Clouds
2:15 PM 57.2 °F - 44.6 °F 63% 29.95 in 10.0 mi South 13.8 mph 20.7 mph N/A   Partly Cloudy
2:35 PM 55.4 °F - 46.4 °F 72% 29.91 in 10.0 mi South 16.1 mph 21.9 mph N/A   Scattered Clouds
2:55 PM 55.4 °F - 48.2 °F 77% 29.92 in 10.0 mi South 13.8 mph 20.7 mph N/A   Mostly Cloudy
3:15 PM 57.2 °F - 48.2 °F 72% 29.90 in 10.0 mi South 15.0 mph - N/A   Scattered Clouds
3:35 PM 57.2 °F - 48.2 °F 72% 29.91 in 10.0 mi South 13.8 mph - N/A   Mostly Cloudy
3:55 PM 55.4 °F - 48.2 °F 77% 29.92 in 10.0 mi South 11.5 mph - N/A   Overcast
4:15 PM 55.4 °F - 48.2 °F 77% 29.89 in 10.0 mi South 15.0 mph - N/A   Overcast
4:35 PM 55.4 °F - 48.2 °F 77% 29.86 in 9.0 mi South 16.1 mph 23.0 mph 0.01 in   Overcast
4:55 PM 53.6 °F - 48.2 °F 82% 29.85 in 10.0 mi South 17.3 mph 24.2 mph 0.01 in   Overcast
5:15 PM 53.6 °F - 48.2 °F 82% 29.83 in 10.0 mi South 20.7 mph 25.3 mph N/A   Overcast
5:35 PM 53.6 °F - 48.2 °F 82% 29.81 in 10.0 mi SSE 17.3 mph 23.0 mph N/A   Overcast
5:55 PM 53.6 °F - 48.2 °F 82% 29.78 in 10.0 mi SSE 19.6 mph 26.5 mph N/A   Overcast
6:15 PM 55.4 °F - 48.2 °F 77% 29.76 in 10.0 mi SSE 21.9 mph 28.8 mph N/A   Overcast
6:35 PM - - - N/A% 29.75 in 10.0 mi South 25.3 mph 39.1 mph N/A   Mostly Cloudy
6:55 PM 55.4 °F - 48.2 °F 77% 29.77 in 10.0 mi South 21.9 mph 28.8 mph N/A   Overcast
7:15 PM 55.4 °F - 48.2 °F 77% 29.77 in 10.0 mi South 18.4 mph 25.3 mph N/A   Overcast
7:35 PM 55.4 °F - 50.0 °F 82% 29.77 in 10.0 mi South 17.3 mph 23.0 mph N/A   Overcast
7:55 PM 55.4 °F - 50.0 °F 82% 29.77 in 8.0 mi South 15.0 mph - N/A   Overcast
8:15 PM 55.4 °F - 50.0 °F 82% 29.76 in 8.0 mi South 15.0 mph - N/A   Scattered Clouds
8:35 PM 55.4 °F - 50.0 °F 82% 29.74 in 9.0 mi SSW 13.8 mph - N/A   Clear
8:55 PM 53.6 °F - 50.0 °F 88% 29.74 in 8.0 mi SSW 13.8 mph - N/A   Clear
9:15 PM 53.6 °F - 50.0 °F 88% 29.74 in 8.0 mi SSW 13.8 mph - N/A   Partly Cloudy
9:35 PM 53.6 °F - 50.0 °F 88% 29.74 in 8.0 mi SSW 13.8 mph - N/A   Partly Cloudy
9:55 PM 55.4 °F - 51.8 °F 88% 29.74 in 8.0 mi SSW 12.7 mph - N/A   Mostly Cloudy
10:15 PM 53.6 °F - 50.0 °F 88% 29.73 in 8.0 mi SSW 12.7 mph - N/A   Mostly Cloudy
10:35 PM 53.6 °F - 50.0 °F 88% 29.72 in 8.0 mi SW 15.0 mph - N/A   Clear
10:55 PM 53.6 °F - 50.0 °F 88% 29.72 in 8.0 mi SW 13.8 mph 18.4 mph N/A   Clear
11:15 PM 53.6 °F - 48.2 °F 82% 29.71 in 9.0 mi SW 13.8 mph 19.6 mph N/A   Clear
11:35 PM 53.6 °F - 48.2 °F 82% 29.71 in 9.0 mi SW 13.8 mph - N/A   Clear
11:55 PM 53.6 °F - 48.2 °F 82% 29.71 in 9.0 mi SW 15.0 mph - N/A   Clear